CFE301 EGLC-EGAC
Flight info
| Callsign | CFE301 |
|---|---|
| Flight time | 0h 52m |
| Altitude | 32000 |
| Route | BPK UN601 LESTA UP6 RODOL UM65 TENSO L603 BELOX DCT REMSI DCT NINEB M148 MAGEE |
| Aircraft | E190/M-SDE3GILORVW/S |
Departure
| Time | 2026-04-28 18:32 |
|---|---|
| Airport | London City Airport (EGLC) |
Arrival
| Time | 2026-04-28 19:24 |
|---|---|
| Airport | George Best Belfast City Airport (EGAC) |
| Time | Latitude | Longitude | Altitude | Speed | Heading |
|---|---|---|---|---|---|
| 2026-04-28 18:15 | 51.50406 | 0.05213 | 27 ft | 0 kts | 182° |
| 2026-04-28 18:24 | 51.50414 | 0.05213 | 28 ft | 2 kts | 185° |
| 2026-04-28 18:24 | 51.50426 | 0.05215 | 26 ft | 2 kts | 187° |
| 2026-04-28 18:25 | 51.50442 | 0.05217 | 27 ft | 3 kts | 182° |
| 2026-04-28 18:25 | 51.50457 | 0.05218 | 27 ft | 2 kts | 233° |
| 2026-04-28 18:25 | 51.50457 | 0.05234 | 27 ft | 2 kts | 259° |
| 2026-04-28 18:26 | 51.50457 | 0.05252 | 27 ft | 0 kts | 262° |
| 2026-04-28 18:28 | 51.50457 | 0.05248 | 27 ft | 2 kts | 265° |
| 2026-04-28 18:28 | 51.50455 | 0.05200 | 16 ft | 7 kts | 266° |
| 2026-04-28 18:28 | 51.50453 | 0.05084 | 27 ft | 14 kts | 270° |
| 2026-04-28 18:29 | 51.50466 | 0.04914 | 28 ft | 17 kts | 272° |
| 2026-04-28 18:29 | 51.50470 | 0.04707 | 28 ft | 21 kts | 271° |
| 2026-04-28 18:29 | 51.50476 | 0.04522 | 26 ft | 9 kts | 278° |
| 2026-04-28 18:29 | 51.50484 | 0.04485 | 24 ft | 4 kts | 296° |
| 2026-04-28 18:30 | 51.50521 | 0.04449 | 25 ft | 8 kts | 351° |
| 2026-04-28 18:30 | 51.50539 | 0.04456 | 25 ft | 7 kts | 24° |
| 2026-04-28 18:30 | 51.50554 | 0.04570 | 27 ft | 0 kts | 91° |
| 2026-04-28 18:31 | 51.50538 | 0.05092 | 29 ft | 105 kts | 91° |
| 2026-04-28 18:32 | 51.50489 | 0.06810 | 353 ft | 189 kts | 89° |
| 2026-04-28 18:32 | 51.50474 | 0.09237 | 1470 ft | 233 kts | 81° |
| 2026-04-28 18:32 | 51.51002 | 0.11748 | 3307 ft | 254 kts | 61° |
| 2026-04-28 18:32 | 51.52185 | 0.13799 | 3294 ft | 251 kts | 34° |
| 2026-04-28 18:33 | 51.53829 | 0.14461 | 3177 ft | 248 kts | 2° |
| 2026-04-28 18:33 | 51.55464 | 0.13501 | 3111 ft | 262 kts | 330° |
| 2026-04-28 18:33 | 51.56635 | 0.11158 | 3072 ft | 279 kts | 300° |
| 2026-04-28 18:33 | 51.57472 | 0.08342 | 3026 ft | 275 kts | 310° |
| 2026-04-28 18:34 | 51.58766 | 0.06218 | 3037 ft | 262 kts | 326° |
| 2026-04-28 18:34 | 51.60197 | 0.04410 | 3042 ft | 261 kts | 330° |
| 2026-04-28 18:34 | 51.61683 | 0.02723 | 3047 ft | 260 kts | 333° |
| 2026-04-28 18:34 | 51.63186 | 0.01179 | 3048 ft | 259 kts | 334° |
| 2026-04-28 18:35 | 51.64722 | -0.00351 | 3112 ft | 259 kts | 334° |
| 2026-04-28 18:35 | 51.66250 | -0.01884 | 3100 ft | 259 kts | 334° |
| 2026-04-28 18:35 | 51.67778 | -0.03426 | 3099 ft | 259 kts | 334° |
| 2026-04-28 18:35 | 51.69313 | -0.04981 | 4044 ft | 259 kts | 334° |
| 2026-04-28 18:36 | 51.70873 | -0.06564 | 5197 ft | 269 kts | 334° |
| 2026-04-28 18:36 | 51.72487 | -0.08168 | 6274 ft | 276 kts | 335° |
| 2026-04-28 18:36 | 51.74154 | -0.09772 | 7307 ft | 282 kts | 333° |
| 2026-04-28 18:36 | 51.75842 | -0.11467 | 8267 ft | 288 kts | 334° |
| 2026-04-28 18:37 | 51.77580 | -0.13149 | 9182 ft | 294 kts | 334° |
| 2026-04-28 18:37 | 51.79330 | -0.14809 | 10180 ft | 297 kts | 334° |
| 2026-04-28 18:37 | 51.81131 | -0.16516 | 11086 ft | 302 kts | 334° |
| 2026-04-28 18:37 | 51.82952 | -0.18262 | 11947 ft | 306 kts | 334° |
| 2026-04-28 18:38 | 51.84799 | -0.20029 | 12900 ft | 311 kts | 334° |
| 2026-04-28 18:38 | 51.86729 | -0.21864 | 13448 ft | 330 kts | 334° |
| 2026-04-28 18:38 | 51.88764 | -0.23802 | 14018 ft | 347 kts | 334° |
| 2026-04-28 18:38 | 51.90876 | -0.25830 | 14697 ft | 356 kts | 334° |
| 2026-04-28 18:39 | 51.93016 | -0.27892 | 15500 ft | 360 kts | 334° |
| 2026-04-28 18:39 | 51.95190 | -0.29979 | 16288 ft | 365 kts | 335° |
| 2026-04-28 18:39 | 51.97367 | -0.32065 | 17068 ft | 369 kts | 335° |
| 2026-04-28 18:39 | 51.99593 | -0.34202 | 17865 ft | 374 kts | 335° |
| 2026-04-28 18:40 | 52.01848 | -0.36370 | 18673 ft | 379 kts | 335° |
| 2026-04-28 18:40 | 52.04123 | -0.38561 | 19433 ft | 383 kts | 336° |
| 2026-04-28 18:40 | 52.06419 | -0.40783 | 20221 ft | 385 kts | 336° |
| 2026-04-28 18:40 | 52.08739 | -0.43019 | 20960 ft | 389 kts | 336° |
| 2026-04-28 18:41 | 52.11086 | -0.45281 | 21654 ft | 393 kts | 337° |
| 2026-04-28 18:41 | 52.13451 | -0.47566 | 22318 ft | 396 kts | 337° |
| 2026-04-28 18:41 | 52.15805 | -0.49844 | 22966 ft | 400 kts | 337° |
| 2026-04-28 18:41 | 52.18211 | -0.52174 | 23629 ft | 403 kts | 337° |
| 2026-04-28 18:42 | 52.20634 | -0.54516 | 24238 ft | 406 kts | 338° |
| 2026-04-28 18:42 | 52.23078 | -0.56897 | 24801 ft | 410 kts | 338° |
| 2026-04-28 18:42 | 52.25543 | -0.59302 | 25371 ft | 414 kts | 338° |
| 2026-04-28 18:42 | 52.28040 | -0.61737 | 25898 ft | 418 kts | 338° |
| 2026-04-28 18:43 | 52.30504 | -0.64142 | 26402 ft | 419 kts | 338° |
| 2026-04-28 18:43 | 52.33019 | -0.66607 | 26866 ft | 423 kts | 338° |
| 2026-04-28 18:43 | 52.35558 | -0.69096 | 27327 ft | 426 kts | 338° |
| 2026-04-28 18:43 | 52.38109 | -0.71590 | 27807 ft | 428 kts | 338° |
| 2026-04-28 18:44 | 52.40681 | -0.74112 | 28253 ft | 431 kts | 338° |
| 2026-04-28 18:44 | 52.45841 | -0.79186 | 29166 ft | 437 kts | 338° |
| 2026-04-28 18:44 | 52.48454 | -0.81758 | 29726 ft | 438 kts | 338° |
| 2026-04-28 18:45 | 52.51064 | -0.84336 | 30342 ft | 437 kts | 338° |
| 2026-04-28 18:45 | 52.53661 | -0.86897 | 30892 ft | 434 kts | 338° |
| 2026-04-28 18:45 | 52.56245 | -0.89450 | 31316 ft | 435 kts | 338° |
| 2026-04-28 18:45 | 52.58875 | -0.92043 | 31319 ft | 446 kts | 338° |
| 2026-04-28 18:46 | 52.61557 | -0.94708 | 31485 ft | 451 kts | 338° |
| 2026-04-28 18:46 | 52.63342 | -0.96492 | 31663 ft | 452 kts | 338° |
| 2026-04-28 18:46 | 52.66027 | -0.99166 | 31903 ft | 448 kts | 338° |
| 2026-04-28 18:46 | 52.68621 | -1.01765 | 31993 ft | 434 kts | 338° |
| 2026-04-28 18:47 | 52.73838 | -1.07252 | 32112 ft | 456 kts | 334° |
| 2026-04-28 18:47 | 52.78753 | -1.14103 | 32096 ft | 462 kts | 324° |
| 2026-04-28 18:48 | 52.83305 | -1.21598 | 32116 ft | 463 kts | 324° |
| 2026-04-28 18:48 | 52.87980 | -1.28975 | 32103 ft | 463 kts | 324° |
| 2026-04-28 18:49 | 52.91854 | -1.35106 | 32112 ft | 463 kts | 324° |
| 2026-04-28 18:49 | 52.97275 | -1.43701 | 32110 ft | 463 kts | 324° |
| 2026-04-28 18:50 | 53.01916 | -1.51072 | 32110 ft | 459 kts | 324° |
| 2026-04-28 18:50 | 53.06547 | -1.58447 | 32123 ft | 462 kts | 324° |
| 2026-04-28 18:51 | 53.11179 | -1.65869 | 32140 ft | 461 kts | 324° |
| 2026-04-28 18:51 | 53.15809 | -1.73301 | 32135 ft | 462 kts | 324° |
| 2026-04-28 18:52 | 53.20403 | -1.80701 | 32143 ft | 462 kts | 324° |
| 2026-04-28 18:52 | 53.25258 | -1.87518 | 32108 ft | 449 kts | 333° |
| 2026-04-28 18:53 | 53.30587 | -1.92774 | 32138 ft | 441 kts | 341° |
| 2026-04-28 18:53 | 53.35945 | -1.97706 | 32137 ft | 443 kts | 339° |
| 2026-04-28 18:54 | 53.41310 | -2.02802 | 32139 ft | 443 kts | 339° |
| 2026-04-28 18:54 | 53.46666 | -2.07908 | 32140 ft | 442 kts | 339° |
| 2026-04-28 18:55 | 53.52022 | -2.13031 | 32155 ft | 442 kts | 338° |
| 2026-04-28 18:55 | 53.57323 | -2.18161 | 32147 ft | 444 kts | 336° |
| 2026-04-28 18:56 | 53.62249 | -2.24723 | 32155 ft | 459 kts | 323° |
| 2026-04-28 18:56 | 53.66314 | -2.33231 | 32152 ft | 473 kts | 309° |
| 2026-04-28 18:57 | 53.69236 | -2.43335 | 32147 ft | 486 kts | 296° |
| 2026-04-28 18:57 | 53.70915 | -2.54509 | 32153 ft | 493 kts | 287° |
| 2026-04-28 18:58 | 53.72254 | -2.65722 | 32114 ft | 485 kts | 287° |
| 2026-04-28 18:58 | 53.73750 | -2.76847 | 32152 ft | 486 kts | 289° |
| 2026-04-28 18:59 | 53.75378 | -2.87927 | 32127 ft | 483 kts | 292° |
| 2026-04-28 18:59 | 53.77664 | -2.98541 | 32166 ft | 479 kts | 297° |
| 2026-04-28 19:00 | 53.80008 | -3.09013 | 32158 ft | 479 kts | 297° |
| 2026-04-28 19:00 | 53.82355 | -3.19591 | 32161 ft | 479 kts | 296° |
| 2026-04-28 19:01 | 53.83515 | -3.24860 | 31920 ft | 475 kts | 296° |
| 2026-04-28 19:01 | 53.84677 | -3.30134 | 30740 ft | 474 kts | 296° |
| 2026-04-28 19:01 | 53.85816 | -3.35330 | 29641 ft | 467 kts | 296° |
| 2026-04-28 19:01 | 53.86916 | -3.40375 | 28594 ft | 459 kts | 296° |
| 2026-04-28 19:02 | 53.88020 | -3.45433 | 27564 ft | 452 kts | 295° |
| 2026-04-28 19:02 | 53.89099 | -3.50390 | 26593 ft | 446 kts | 295° |
| 2026-04-28 19:02 | 53.90162 | -3.55294 | 26376 ft | 442 kts | 295° |
| 2026-04-28 19:02 | 53.91220 | -3.60180 | 26263 ft | 441 kts | 295° |
| 2026-04-28 19:03 | 53.92277 | -3.65083 | 26201 ft | 441 kts | 295° |
| 2026-04-28 19:03 | 53.93315 | -3.69908 | 26168 ft | 440 kts | 295° |
| 2026-04-28 19:03 | 53.94367 | -3.74801 | 26145 ft | 439 kts | 295° |
| 2026-04-28 19:03 | 53.95441 | -3.79655 | 26162 ft | 438 kts | 296° |
| 2026-04-28 19:04 | 53.96626 | -3.84420 | 26170 ft | 435 kts | 301° |
| 2026-04-28 19:04 | 53.97931 | -3.89055 | 26168 ft | 436 kts | 300° |
| 2026-04-28 19:04 | 53.99210 | -3.93733 | 26162 ft | 436 kts | 300° |
| 2026-04-28 19:04 | 54.00478 | -3.98427 | 26165 ft | 436 kts | 300° |
| 2026-04-28 19:05 | 54.01723 | -4.03062 | 26171 ft | 436 kts | 300° |
| 2026-04-28 19:05 | 54.02980 | -4.07752 | 26169 ft | 436 kts | 300° |
| 2026-04-28 19:05 | 54.04236 | -4.12450 | 26154 ft | 436 kts | 300° |
| 2026-04-28 19:05 | 54.05484 | -4.17126 | 25241 ft | 432 kts | 300° |
| 2026-04-28 19:06 | 54.06722 | -4.21756 | 24312 ft | 428 kts | 299° |
| 2026-04-28 19:06 | 54.07554 | -4.24857 | 23664 ft | 423 kts | 299° |
| 2026-04-28 19:06 | 54.09161 | -4.30832 | 22356 ft | 415 kts | 300° |
| 2026-04-28 19:06 | 54.10356 | -4.35276 | 21408 ft | 409 kts | 300° |
| 2026-04-28 19:07 | 54.11537 | -4.39671 | 20500 ft | 403 kts | 300° |
| 2026-04-28 19:07 | 54.12686 | -4.43951 | 19631 ft | 398 kts | 299° |
| 2026-04-28 19:07 | 54.13830 | -4.48215 | 18792 ft | 393 kts | 299° |
| 2026-04-28 19:07 | 54.14963 | -4.52441 | 17885 ft | 388 kts | 299° |
| 2026-04-28 19:08 | 54.16080 | -4.56595 | 16988 ft | 383 kts | 299° |
| 2026-04-28 19:08 | 54.17184 | -4.60682 | 16164 ft | 376 kts | 299° |
| 2026-04-28 19:08 | 54.18281 | -4.64717 | 15301 ft | 372 kts | 299° |
| 2026-04-28 19:08 | 54.19368 | -4.68691 | 14561 ft | 367 kts | 299° |
| 2026-04-28 19:09 | 54.20453 | -4.72641 | 14378 ft | 367 kts | 299° |
| 2026-04-28 19:09 | 54.21538 | -4.76582 | 14268 ft | 364 kts | 299° |
| 2026-04-28 19:09 | 54.22615 | -4.80484 | 14195 ft | 363 kts | 299° |
| 2026-04-28 19:09 | 54.23686 | -4.84356 | 13387 ft | 359 kts | 299° |
| 2026-04-28 19:10 | 54.24753 | -4.88190 | 12565 ft | 354 kts | 299° |
| 2026-04-28 19:10 | 54.25811 | -4.91966 | 11784 ft | 349 kts | 299° |
| 2026-04-28 19:10 | 54.26861 | -4.95682 | 11016 ft | 344 kts | 299° |
| 2026-04-28 19:10 | 54.27893 | -4.99304 | 10465 ft | 338 kts | 299° |
| 2026-04-28 19:11 | 54.28925 | -5.02902 | 10316 ft | 327 kts | 299° |
| 2026-04-28 19:11 | 54.29898 | -5.06312 | 10020 ft | 311 kts | 299° |
| 2026-04-28 19:11 | 54.30830 | -5.09590 | 9551 ft | 303 kts | 299° |
| 2026-04-28 19:11 | 54.31753 | -5.12821 | 9001 ft | 300 kts | 299° |
| 2026-04-28 19:12 | 54.32671 | -5.16015 | 8463 ft | 298 kts | 299° |
| 2026-04-28 19:12 | 54.33595 | -5.19203 | 8292 ft | 299 kts | 299° |
| 2026-04-28 19:12 | 54.34516 | -5.22374 | 8221 ft | 296 kts | 299° |
| 2026-04-28 19:12 | 54.35431 | -5.25524 | 8199 ft | 295 kts | 299° |
| 2026-04-28 19:13 | 54.36343 | -5.28665 | 8191 ft | 295 kts | 299° |
| 2026-04-28 19:13 | 54.37259 | -5.31820 | 8183 ft | 295 kts | 299° |
| 2026-04-28 19:13 | 54.38174 | -5.34978 | 8183 ft | 295 kts | 298° |
| 2026-04-28 19:13 | 54.39088 | -5.38112 | 8195 ft | 293 kts | 299° |
| 2026-04-28 19:14 | 54.39988 | -5.41199 | 8194 ft | 294 kts | 299° |
| 2026-04-28 19:14 | 54.40903 | -5.44337 | 8188 ft | 294 kts | 299° |
| 2026-04-28 19:14 | 54.41816 | -5.47470 | 8185 ft | 293 kts | 299° |
| 2026-04-28 19:14 | 54.42728 | -5.50601 | 8197 ft | 293 kts | 299° |
| 2026-04-28 19:15 | 54.43643 | -5.53743 | 8196 ft | 294 kts | 299° |
| 2026-04-28 19:15 | 54.44462 | -5.56952 | 8181 ft | 295 kts | 287° |
| 2026-04-28 19:15 | 54.44644 | -5.60399 | 8086 ft | 283 kts | 271° |
| 2026-04-28 19:15 | 54.44616 | -5.62603 | 7954 ft | 275 kts | 268° |
| 2026-04-28 19:16 | 54.44468 | -5.66889 | 7661 ft | 263 kts | 266° |
| 2026-04-28 19:16 | 54.44334 | -5.70010 | 7331 ft | 261 kts | 266° |
| 2026-04-28 19:16 | 54.44203 | -5.73112 | 7000 ft | 259 kts | 266° |
| 2026-04-28 19:16 | 54.44076 | -5.76183 | 6631 ft | 255 kts | 266° |
| 2026-04-28 19:17 | 54.43956 | -5.79139 | 6049 ft | 250 kts | 266° |
| 2026-04-28 19:17 | 54.43840 | -5.82139 | 5362 ft | 250 kts | 266° |
| 2026-04-28 19:17 | 54.43728 | -5.85113 | 4708 ft | 249 kts | 266° |
| 2026-04-28 19:17 | 54.43612 | -5.88089 | 4026 ft | 249 kts | 266° |
| 2026-04-28 19:18 | 54.43537 | -5.91041 | 3387 ft | 246 kts | 275° |
| 2026-04-28 19:18 | 54.44069 | -5.93794 | 3117 ft | 249 kts | 299° |
| 2026-04-28 19:18 | 54.44845 | -5.96266 | 3038 ft | 221 kts | 303° |
| 2026-04-28 19:18 | 54.45584 | -5.98445 | 2990 ft | 204 kts | 304° |
| 2026-04-28 19:19 | 54.46298 | -6.00488 | 2973 ft | 195 kts | 307° |
| 2026-04-28 19:19 | 54.47286 | -6.01951 | 2923 ft | 183 kts | 346° |
| 2026-04-28 19:19 | 54.48477 | -6.02413 | 2667 ft | 173 kts | 356° |
| 2026-04-28 19:19 | 54.49698 | -6.02597 | 2183 ft | 178 kts | 12° |
| 2026-04-28 19:20 | 54.50686 | -6.01652 | 2053 ft | 151 kts | 57° |
| 2026-04-28 19:20 | 54.51174 | -6.00111 | 2006 ft | 148 kts | 57° |
| 2026-04-28 19:20 | 54.51983 | -5.98976 | 1998 ft | 152 kts | 36° |
| 2026-04-28 19:20 | 54.52865 | -5.98014 | 2009 ft | 152 kts | 39° |
| 2026-04-28 19:21 | 54.53686 | -5.96979 | 1833 ft | 139 kts | 40° |
| 2026-04-28 19:21 | 54.54459 | -5.96054 | 1653 ft | 135 kts | 38° |
| 2026-04-28 19:21 | 54.55240 | -5.95134 | 1489 ft | 133 kts | 38° |
| 2026-04-28 19:21 | 54.55967 | -5.94256 | 1311 ft | 121 kts | 37° |
| 2026-04-28 19:22 | 54.56627 | -5.93466 | 1191 ft | 113 kts | 38° |
| 2026-04-28 19:22 | 54.56837 | -5.93216 | 1140 ft | 112 kts | 37° |
| 2026-04-28 19:22 | 54.57898 | -5.91968 | 853 ft | 110 kts | 34° |
| 2026-04-28 19:22 | 54.58526 | -5.91213 | 693 ft | 109 kts | 37° |
| 2026-04-28 19:23 | 54.59151 | -5.90437 | 537 ft | 111 kts | 35° |
| 2026-04-28 19:23 | 54.59787 | -5.89672 | 399 ft | 115 kts | 36° |
| 2026-04-28 19:23 | 54.60447 | -5.88890 | 219 ft | 115 kts | 34° |
| 2026-04-28 19:23 | 54.61100 | -5.88107 | 68 ft | 111 kts | 35° |
| 2026-04-28 19:24 | 54.61670 | -5.87434 | 19 ft | 82 kts | 36° |
| 2026-04-28 19:24 | 54.62016 | -5.87015 | 19 ft | 49 kts | 32° |
| 2026-04-28 19:24 | 54.62280 | -5.86695 | 20 ft | 40 kts | 37° |
| 2026-04-28 19:24 | 54.62420 | -5.86461 | 22 ft | 19 kts | 45° |
| 2026-04-28 19:25 | 54.62454 | -5.86507 | 22 ft | 11 kts | 217° |
| 2026-04-28 19:25 | 54.62357 | -5.86594 | 21 ft | 21 kts | 213° |
| 2026-04-28 19:25 | 54.62205 | -5.86779 | 20 ft | 32 kts | 214° |
| 2026-04-28 19:25 | 54.61997 | -5.87024 | 18 ft | 40 kts | 214° |
| 2026-04-28 19:26 | 54.61857 | -5.87166 | 20 ft | 16 kts | 181° |
| 2026-04-28 19:26 | 54.61775 | -5.87026 | 19 ft | 12 kts | 134° |
| 2026-04-28 19:26 | 54.61689 | -5.87038 | 19 ft | 14 kts | 217° |
| 2026-04-28 19:26 | 54.61594 | -5.87149 | 19 ft | 17 kts | 211° |
| 2026-04-28 19:27 | 54.61513 | -5.87152 | 21 ft | 0 kts | 153° |